sensor_id;sensor_type;location;lat;lon;timestamp;temperature;humidity
72380;SHT30;60354;47.798;12.472;2023-05-18T00:00:22;8.42;92.77
72380;SHT30;60354;47.798;12.472;2023-05-18T00:02:48;8.33;93.30
72380;SHT30;60354;47.798;12.472;2023-05-18T00:05:14;8.38;92.99
72380;SHT30;60354;47.798;12.472;2023-05-18T00:07:42;8.41;93.58
72380;SHT30;60354;47.798;12.472;2023-05-18T00:10:08;8.42;93.79
72380;SHT30;60354;47.798;12.472;2023-05-18T00:12:34;8.49;92.64
72380;SHT30;60354;47.798;12.472;2023-05-18T00:14:59;8.53;92.37
72380;SHT30;60354;47.798;12.472;2023-05-18T00:17:25;8.60;92.05
72380;SHT30;60354;47.798;12.472;2023-05-18T00:19:50;8.57;91.87
72380;SHT30;60354;47.798;12.472;2023-05-18T00:22:16;8.63;91.87
72380;SHT30;60354;47.798;12.472;2023-05-18T00:24:45;8.62;91.85
72380;SHT30;60354;47.798;12.472;2023-05-18T00:27:11;8.59;91.79
72380;SHT30;60354;47.798;12.472;2023-05-18T00:29:36;8.62;92.02
72380;SHT30;60354;47.798;12.472;2023-05-18T00:32:02;8.60;91.76
72380;SHT30;60354;47.798;12.472;2023-05-18T00:34:28;8.59;91.76
72380;SHT30;60354;47.798;12.472;2023-05-18T00:36:54;8.56;91.85
72380;SHT30;60354;47.798;12.472;2023-05-18T00:39:19;8.59;91.94
72380;SHT30;60354;47.798;12.472;2023-05-18T00:41:45;8.55;92.35
72380;SHT30;60354;47.798;12.472;2023-05-18T00:44:10;8.57;92.08
72380;SHT30;60354;47.798;12.472;2023-05-18T00:46:36;8.52;92.58
72380;SHT30;60354;47.798;12.472;2023-05-18T00:49:02;8.52;92.54
72380;SHT30;60354;47.798;12.472;2023-05-18T00:51:28;8.52;92.67
72380;SHT30;60354;47.798;12.472;2023-05-18T00:53:58;8.53;92.54
72380;SHT30;60354;47.798;12.472;2023-05-18T00:56:24;8.49;92.19
72380;SHT30;60354;47.798;12.472;2023-05-18T00:58:55;8.52;92.26
72380;SHT30;60354;47.798;12.472;2023-05-18T01:01:31;8.53;92.15
72380;SHT30;60354;47.798;12.472;2023-05-18T01:04:00;8.48;92.25
72380;SHT30;60354;47.798;12.472;2023-05-18T01:06:30;8.49;92.59
72380;SHT30;60354;47.798;12.472;2023-05-18T01:09:08;8.50;92.26
72380;SHT30;60354;47.798;12.472;2023-05-18T01:17:19;8.36;94.01
72380;SHT30;60354;47.798;12.472;2023-05-18T01:22:37;8.36;93.82
72380;SHT30;60354;47.798;12.472;2023-05-18T01:25:49;8.33;93.00
72380;SHT30;60354;47.798;12.472;2023-05-18T01:28:31;8.32;94.05
72380;SHT30;60354;47.798;12.472;2023-05-18T01:30:57;8.31;93.34
72380;SHT30;60354;47.798;12.472;2023-05-18T01:33:23;8.26;93.86
72380;SHT30;60354;47.798;12.472;2023-05-18T01:35:50;8.25;94.05
72380;SHT30;60354;47.798;12.472;2023-05-18T01:38:19;8.24;94.63
72380;SHT30;60354;47.798;12.472;2023-05-18T01:43:37;8.25;94.01
72380;SHT30;60354;47.798;12.472;2023-05-18T01:49:04;8.38;93.60
72380;SHT30;60354;47.798;12.472;2023-05-18T01:51:32;8.39;93.26
72380;SHT30;60354;47.798;12.472;2023-05-18T01:54:04;8.42;93.84
72380;SHT30;60354;47.798;12.472;2023-05-18T01:56:33;8.41;92.64
72380;SHT30;60354;47.798;12.472;2023-05-18T01:58:59;8.42;92.19
72380;SHT30;60354;47.798;12.472;2023-05-18T02:01:25;8.36;91.69
72380;SHT30;60354;47.798;12.472;2023-05-18T02:03:50;8.38;92.30
72380;SHT30;60354;47.798;12.472;2023-05-18T02:06:16;8.33;93.01
72380;SHT30;60354;47.798;12.472;2023-05-18T02:08:42;8.29;93.32
72380;SHT30;60354;47.798;12.472;2023-05-18T02:11:08;8.26;92.94
72380;SHT30;60354;47.798;12.472;2023-05-18T02:13:33;8.28;92.85
72380;SHT30;60354;47.798;12.472;2023-05-18T02:15:59;8.28;92.93
72380;SHT30;60354;47.798;12.472;2023-05-18T02:18:24;8.29;92.02
72380;SHT30;60354;47.798;12.472;2023-05-18T02:20:59;8.14;93.20
72380;SHT30;60354;47.798;12.472;2023-05-18T02:23:25;7.93;94.20
72380;SHT30;60354;47.798;12.472;2023-05-18T02:25:51;7.75;94.43
72380;SHT30;60354;47.798;12.472;2023-05-18T02:28:20;7.83;94.89
72380;SHT30;60354;47.798;12.472;2023-05-18T02:30:46;7.83;94.64
72380;SHT30;60354;47.798;12.472;2023-05-18T02:33:11;7.85;94.13
72380;SHT30;60354;47.798;12.472;2023-05-18T02:35:36;7.94;93.85
72380;SHT30;60354;47.798;12.472;2023-05-18T02:38:02;7.99;94.09
72380;SHT30;60354;47.798;12.472;2023-05-18T02:40:28;8.04;92.90
72380;SHT30;60354;47.798;12.472;2023-05-18T02:42:54;8.05;92.76
72380;SHT30;60354;47.798;12.472;2023-05-18T02:45:20;7.97;93.59
72380;SHT30;60354;47.798;12.472;2023-05-18T02:47:45;7.85;94.17
72380;SHT30;60354;47.798;12.472;2023-05-18T02:50:11;7.84;94.40
72380;SHT30;60354;47.798;12.472;2023-05-18T02:52:37;7.87;94.14
72380;SHT30;60354;47.798;12.472;2023-05-18T02:55:04;7.88;93.87
72380;SHT30;60354;47.798;12.472;2023-05-18T02:57:50;7.88;94.12
72380;SHT30;60354;47.798;12.472;2023-05-18T03:00:24;7.88;94.25
72380;SHT30;60354;47.798;12.472;2023-05-18T03:02:49;7.87;94.32
72380;SHT30;60354;47.798;12.472;2023-05-18T03:05:15;7.85;93.94
72380;SHT30;60354;47.798;12.472;2023-05-18T03:07:41;7.84;94.34
72380;SHT30;60354;47.798;12.472;2023-05-18T03:10:10;7.83;93.35
72380;SHT30;60354;47.798;12.472;2023-05-18T03:12:36;7.80;93.44
72380;SHT30;60354;47.798;12.472;2023-05-18T03:15:01;7.77;94.28
72380;SHT30;60354;47.798;12.472;2023-05-18T03:17:27;7.77;94.10
72380;SHT30;60354;47.798;12.472;2023-05-18T03:19:56;7.73;92.97
72380;SHT30;60354;47.798;12.472;2023-05-18T03:22:21;7.71;93.33
72380;SHT30;60354;47.798;12.472;2023-05-18T03:24:47;7.75;92.99
72380;SHT30;60354;47.798;12.472;2023-05-18T03:27:16;7.81;92.53
72380;SHT30;60354;47.798;12.472;2023-05-18T03:29:43;7.88;92.48
72380;SHT30;60354;47.798;12.472;2023-05-18T03:32:11;7.87;92.25
72380;SHT30;60354;47.798;12.472;2023-05-18T03:34:36;7.91;92.35
72380;SHT30;60354;47.798;12.472;2023-05-18T03:37:03;7.91;91.85
72380;SHT30;60354;47.798;12.472;2023-05-18T03:39:30;7.90;93.32
72380;SHT30;60354;47.798;12.472;2023-05-18T03:41:56;7.80;92.01
72380;SHT30;60354;47.798;12.472;2023-05-18T03:44:22;7.75;92.52
72380;SHT30;60354;47.798;12.472;2023-05-18T03:46:48;7.73;93.73
72380;SHT30;60354;47.798;12.472;2023-05-18T03:49:13;7.69;93.09
72380;SHT30;60354;47.798;12.472;2023-05-18T03:51:41;7.77;92.79
72380;SHT30;60354;47.798;12.472;2023-05-18T03:54:06;7.75;93.10
72380;SHT30;60354;47.798;12.472;2023-05-18T03:56:32;7.83;92.83
72380;SHT30;60354;47.798;12.472;2023-05-18T03:58:57;7.90;92.72
72380;SHT30;60354;47.798;12.472;2023-05-18T04:01:23;7.97;92.71
72380;SHT30;60354;47.798;12.472;2023-05-18T04:03:49;7.94;92.61
72380;SHT30;60354;47.798;12.472;2023-05-18T04:06:16;7.93;92.63
72380;SHT30;60354;47.798;12.472;2023-05-18T04:08:41;7.99;92.60
72380;SHT30;60354;47.798;12.472;2023-05-18T04:11:07;7.97;92.10
72380;SHT30;60354;47.798;12.472;2023-05-18T04:13:37;7.98;92.53
72380;SHT30;60354;47.798;12.472;2023-05-18T04:16:02;7.98;92.64
72380;SHT30;60354;47.798;12.472;2023-05-18T04:18:28;7.97;92.91
72380;SHT30;60354;47.798;12.472;2023-05-18T04:20:55;8.02;93.35
72380;SHT30;60354;47.798;12.472;2023-05-18T04:23:20;8.05;92.17
72380;SHT30;60354;47.798;12.472;2023-05-18T04:25:46;8.05;93.48
72380;SHT30;60354;47.798;12.472;2023-05-18T04:28:14;8.06;93.26
72380;SHT30;60354;47.798;12.472;2023-05-18T04:30:40;8.04;92.83
72380;SHT30;60354;47.798;12.472;2023-05-18T04:33:05;8.04;93.00
72380;SHT30;60354;47.798;12.472;2023-05-18T04:35:31;8.15;93.51
72380;SHT30;60354;47.798;12.472;2023-05-18T04:37:57;8.12;93.07
72380;SHT30;60354;47.798;12.472;2023-05-18T04:40:22;8.11;93.84
72380;SHT30;60354;47.798;12.472;2023-05-18T04:42:50;8.09;93.62
72380;SHT30;60354;47.798;12.472;2023-05-18T04:45:19;8.15;93.58
72380;SHT30;60354;47.798;12.472;2023-05-18T04:47:48;8.20;93.41
72380;SHT30;60354;47.798;12.472;2023-05-18T04:50:18;8.28;93.35
72380;SHT30;60354;47.798;12.472;2023-05-18T04:52:47;8.29;93.08
72380;SHT30;60354;47.798;12.472;2023-05-18T04:55:18;8.36;92.52
72380;SHT30;60354;47.798;12.472;2023-05-18T04:58:03;8.46;92.40
72380;SHT30;60354;47.798;12.472;2023-05-18T05:00:29;8.48;92.02
72380;SHT30;60354;47.798;12.472;2023-05-18T05:02:55;8.53;91.74
72380;SHT30;60354;47.798;12.472;2023-05-18T05:05:22;8.57;91.47
72380;SHT30;60354;47.798;12.472;2023-05-18T05:07:52;8.59;91.18
72380;SHT30;60354;47.798;12.472;2023-05-18T05:10:19;8.64;91.02
72380;SHT30;60354;47.798;12.472;2023-05-18T05:12:44;8.64;91.34
72380;SHT30;60354;47.798;12.472;2023-05-18T05:15:10;8.67;90.78
72380;SHT30;60354;47.798;12.472;2023-05-18T05:17:37;8.79;90.65
72380;SHT30;60354;47.798;12.472;2023-05-18T05:20:06;8.79;89.90
72380;SHT30;60354;47.798;12.472;2023-05-18T05:22:32;8.88;89.97
72380;SHT30;60354;47.798;12.472;2023-05-18T05:24:59;8.93;89.57
72380;SHT30;60354;47.798;12.472;2023-05-18T05:27:25;9.01;89.09
72380;SHT30;60354;47.798;12.472;2023-05-18T05:29:51;9.07;89.27
72380;SHT30;60354;47.798;12.472;2023-05-18T05:32:16;9.18;88.72
72380;SHT30;60354;47.798;12.472;2023-05-18T05:34:42;9.24;88.31
72380;SHT30;60354;47.798;12.472;2023-05-18T05:37:11;9.31;88.42
72380;SHT30;60354;47.798;12.472;2023-05-18T05:39:37;9.32;87.89
72380;SHT30;60354;47.798;12.472;2023-05-18T05:42:05;9.51;87.62
72380;SHT30;60354;47.798;12.472;2023-05-18T05:44:30;9.42;85.83
72380;SHT30;60354;47.798;12.472;2023-05-18T05:46:56;9.69;85.60
72380;SHT30;60354;47.798;12.472;2023-05-18T05:49:21;10.60;81.91
72380;SHT30;60354;47.798;12.472;2023-05-18T05:51:47;11.39;79.95
72380;SHT30;60354;47.798;12.472;2023-05-18T05:54:13;11.66;77.55
72380;SHT30;60354;47.798;12.472;2023-05-18T05:56:39;11.49;78.71
72380;SHT30;60354;47.798;12.472;2023-05-18T05:59:04;11.05;77.99
72380;SHT30;60354;47.798;12.472;2023-05-18T06:01:30;10.23;78.86
72380;SHT30;60354;47.798;12.472;2023-05-18T06:03:56;10.05;81.49
72380;SHT30;60354;47.798;12.472;2023-05-18T06:06:22;9.65;81.49
72380;SHT30;60354;47.798;12.472;2023-05-18T06:08:48;9.75;82.48
72380;SHT30;60354;47.798;12.472;2023-05-18T06:11:15;9.81;82.31
72380;SHT30;60354;47.798;12.472;2023-05-18T06:13:40;10.44;79.01
72380;SHT30;60354;47.798;12.472;2023-05-18T06:16:06;10.99;77.30
72380;SHT30;60354;47.798;12.472;2023-05-18T06:18:31;11.11;76.21
72380;SHT30;60354;47.798;12.472;2023-05-18T06:21:02;11.39;76.95
72380;SHT30;60354;47.798;12.472;2023-05-18T06:23:29;11.93;76.11
72380;SHT30;60354;47.798;12.472;2023-05-18T06:26:00;12.38;74.41
72380;SHT30;60354;47.798;12.472;2023-05-18T06:28:44;12.11;74.64
72380;SHT30;60354;47.798;12.472;2023-05-18T06:31:30;12.62;71.94
72380;SHT30;60354;47.798;12.472;2023-05-18T06:34:08;12.14;73.08
72380;SHT30;60354;47.798;12.472;2023-05-18T06:36:34;11.98;73.66
72380;SHT30;60354;47.798;12.472;2023-05-18T06:38:59;11.50;75.15
72380;SHT30;60354;47.798;12.472;2023-05-18T06:41:25;11.76;76.28
72380;SHT30;60354;47.798;12.472;2023-05-18T06:43:51;12.01;73.80
72380;SHT30;60354;47.798;12.472;2023-05-18T06:46:28;12.11;73.95
72380;SHT30;60354;47.798;12.472;2023-05-18T06:48:59;12.38;72.60
72380;SHT30;60354;47.798;12.472;2023-05-18T06:51:25;12.42;71.69
72380;SHT30;60354;47.798;12.472;2023-05-18T06:53:53;12.25;70.34
72380;SHT30;60354;47.798;12.472;2023-05-18T06:56:19;12.42;71.18
72380;SHT30;60354;47.798;12.472;2023-05-18T06:58:46;12.39;70.37
72380;SHT30;60354;47.798;12.472;2023-05-18T07:01:12;12.24;71.96
72380;SHT30;60354;47.798;12.472;2023-05-18T07:03:37;12.32;71.78
72380;SHT30;60354;47.798;12.472;2023-05-18T07:06:03;11.93;73.51
72380;SHT30;60354;47.798;12.472;2023-05-18T07:08:29;11.95;73.20
72380;SHT30;60354;47.798;12.472;2023-05-18T07:10:56;12.36;72.16
72380;SHT30;60354;47.798;12.472;2023-05-18T07:13:23;12.62;72.66
72380;SHT30;60354;47.798;12.472;2023-05-18T07:15:48;13.41;70.10
72380;SHT30;60354;47.798;12.472;2023-05-18T07:18:14;13.54;69.92
72380;SHT30;60354;47.798;12.472;2023-05-18T07:20:39;14.25;68.04
72380;SHT30;60354;47.798;12.472;2023-05-18T07:23:05;14.33;67.28
72380;SHT30;60354;47.798;12.472;2023-05-18T07:25:31;14.02;67.10
72380;SHT30;60354;47.798;12.472;2023-05-18T07:27:56;13.76;68.72
72380;SHT30;60354;47.798;12.472;2023-05-18T07:30:22;13.81;68.87
72380;SHT30;60354;47.798;12.472;2023-05-18T07:32:48;13.45;67.75
72380;SHT30;60354;47.798;12.472;2023-05-18T07:35:15;13.45;67.99
72380;SHT30;60354;47.798;12.472;2023-05-18T07:37:43;13.76;67.52
72380;SHT30;60354;47.798;12.472;2023-05-18T07:40:09;13.99;66.81
72380;SHT30;60354;47.798;12.472;2023-05-18T07:42:39;13.43;66.19
72380;SHT30;60354;47.798;12.472;2023-05-18T07:45:06;13.62;67.54
72380;SHT30;60354;47.798;12.472;2023-05-18T07:47:32;13.48;67.71
72380;SHT30;60354;47.798;12.472;2023-05-18T07:49:58;13.35;67.71
72380;SHT30;60354;47.798;12.472;2023-05-18T07:52:23;13.68;67.07
72380;SHT30;60354;47.798;12.472;2023-05-18T07:54:49;14.53;66.10
72380;SHT30;60354;47.798;12.472;2023-05-18T07:57:14;14.40;65.30
72380;SHT30;60354;47.798;12.472;2023-05-18T07:59:40;14.41;64.95
72380;SHT30;60354;47.798;12.472;2023-05-18T08:02:05;15.26;62.14
72380;SHT30;60354;47.798;12.472;2023-05-18T08:04:31;14.94;63.25
72380;SHT30;60354;47.798;12.472;2023-05-18T08:06:57;14.13;64.52
72380;SHT30;60354;47.798;12.472;2023-05-18T08:09:25;14.57;63.63
72380;SHT30;60354;47.798;12.472;2023-05-18T08:11:51;14.50;61.53
72380;SHT30;60354;47.798;12.472;2023-05-18T08:14:17;14.66;63.18
72380;SHT30;60354;47.798;12.472;2023-05-18T08:16:43;14.26;61.52
72380;SHT30;60354;47.798;12.472;2023-05-18T08:19:09;14.76;61.42
72380;SHT30;60354;47.798;12.472;2023-05-18T08:21:35;15.43;61.16
72380;SHT30;60354;47.798;12.472;2023-05-18T08:24:02;14.57;61.32
72380;SHT30;60354;47.798;12.472;2023-05-18T08:26:27;14.43;62.79
72380;SHT30;60354;47.798;12.472;2023-05-18T08:28:53;14.46;62.46
72380;SHT30;60354;47.798;12.472;2023-05-18T08:31:19;14.01;62.89
72380;SHT30;60354;47.798;12.472;2023-05-18T08:33:45;14.06;63.13
72380;SHT30;60354;47.798;12.472;2023-05-18T08:36:11;14.61;62.51
72380;SHT30;60354;47.798;12.472;2023-05-18T08:38:37;14.27;62.47
72380;SHT30;60354;47.798;12.472;2023-05-18T08:44:08;15.07;60.11
72380;SHT30;60354;47.798;12.472;2023-05-18T08:46:39;14.76;59.63
72380;SHT30;60354;47.798;12.472;2023-05-18T08:49:08;14.56;61.48
72380;SHT30;60354;47.798;12.472;2023-05-18T08:51:35;14.43;62.32
72380;SHT30;60354;47.798;12.472;2023-05-18T08:54:02;14.51;61.68
72380;SHT30;60354;47.798;12.472;2023-05-18T08:56:30;15.05;61.04
72380;SHT30;60354;47.798;12.472;2023-05-18T08:58:58;14.78;60.17
72380;SHT30;60354;47.798;12.472;2023-05-18T09:01:24;14.85;62.36
72380;SHT30;60354;47.798;12.472;2023-05-18T09:03:54;14.20;60.63
72380;SHT30;60354;47.798;12.472;2023-05-18T09:06:20;14.15;61.05
72380;SHT30;60354;47.798;12.472;2023-05-18T09:08:51;14.66;60.87
72380;SHT30;60354;47.798;12.472;2023-05-18T09:11:17;14.44;61.99
72380;SHT30;60354;47.798;12.472;2023-05-18T09:13:43;14.33;61.32
72380;SHT30;60354;47.798;12.472;2023-05-18T09:16:08;14.81;61.29
72380;SHT30;60354;47.798;12.472;2023-05-18T09:18:34;15.46;60.39
72380;SHT30;60354;47.798;12.472;2023-05-18T09:20:59;15.93;58.70
72380;SHT30;60354;47.798;12.472;2023-05-18T09:23:25;16.31;57.30
72380;SHT30;60354;47.798;12.472;2023-05-18T09:25:51;16.00;58.64
72380;SHT30;60354;47.798;12.472;2023-05-18T09:28:31;15.86;57.29
72380;SHT30;60354;47.798;12.472;2023-05-18T09:30:57;15.59;57.94
72380;SHT30;60354;47.798;12.472;2023-05-18T09:33:23;15.59;56.55
72380;SHT30;60354;47.798;12.472;2023-05-18T09:35:49;15.19;58.74
72380;SHT30;60354;47.798;12.472;2023-05-18T09:38:16;15.69;57.91
72380;SHT30;60354;47.798;12.472;2023-05-18T09:40:47;15.93;57.77
72380;SHT30;60354;47.798;12.472;2023-05-18T09:43:13;15.53;58.00
72380;SHT30;60354;47.798;12.472;2023-05-18T09:45:44;15.47;57.28
72380;SHT30;60354;47.798;12.472;2023-05-18T09:48:10;14.95;58.61
72380;SHT30;60354;47.798;12.472;2023-05-18T09:50:36;14.32;60.05
72380;SHT30;60354;47.798;12.472;2023-05-18T09:53:08;14.66;60.28
72380;SHT30;60354;47.798;12.472;2023-05-18T09:55:36;14.67;59.59
72380;SHT30;60354;47.798;12.472;2023-05-18T09:58:04;14.38;60.71
72380;SHT30;60354;47.798;12.472;2023-05-18T10:00:31;14.44;60.33
72380;SHT30;60354;47.798;12.472;2023-05-18T10:03:01;14.12;60.08
72380;SHT30;60354;47.798;12.472;2023-05-18T10:05:28;14.22;60.88
72380;SHT30;60354;47.798;12.472;2023-05-18T10:07:58;14.40;61.22
72380;SHT30;60354;47.798;12.472;2023-05-18T10:10:27;14.76;60.59
72380;SHT30;60354;47.798;12.472;2023-05-18T10:12:54;14.59;59.85
72380;SHT30;60354;47.798;12.472;2023-05-18T10:15:22;14.68;61.84
72380;SHT30;60354;47.798;12.472;2023-05-18T10:17:49;14.71;60.78
72380;SHT30;60354;47.798;12.472;2023-05-18T10:20:20;14.26;62.24
72380;SHT30;60354;47.798;12.472;2023-05-18T10:22:49;14.36;60.27
72380;SHT30;60354;47.798;12.472;2023-05-18T10:25:21;14.67;60.44
72380;SHT30;60354;47.798;12.472;2023-05-18T10:27:48;14.29;61.70
72380;SHT30;60354;47.798;12.472;2023-05-18T10:30:14;14.17;62.15
72380;SHT30;60354;47.798;12.472;2023-05-18T10:32:42;13.92;63.49
72380;SHT30;60354;47.798;12.472;2023-05-18T10:35:09;13.86;63.75
72380;SHT30;60354;47.798;12.472;2023-05-18T10:37:38;13.45;64.60
72380;SHT30;60354;47.798;12.472;2023-05-18T10:40:05;13.28;65.30
72380;SHT30;60354;47.798;12.472;2023-05-18T10:42:32;13.18;66.34
72380;SHT30;60354;47.798;12.472;2023-05-18T10:44:58;13.43;66.25
72380;SHT30;60354;47.798;12.472;2023-05-18T10:47:28;13.53;65.73
72380;SHT30;60354;47.798;12.472;2023-05-18T10:49:55;13.48;64.68
72380;SHT30;60354;47.798;12.472;2023-05-18T10:52:22;13.44;65.11
72380;SHT30;60354;47.798;12.472;2023-05-18T10:54:48;13.34;65.33
72380;SHT30;60354;47.798;12.472;2023-05-18T10:57:16;13.33;65.50
72380;SHT30;60354;47.798;12.472;2023-05-18T10:59:43;13.35;66.42
72380;SHT30;60354;47.798;12.472;2023-05-18T11:02:16;13.40;67.36
72380;SHT30;60354;47.798;12.472;2023-05-18T11:04:45;13.40;67.23
72380;SHT30;60354;47.798;12.472;2023-05-18T11:07:11;13.35;67.15
72380;SHT30;60354;47.798;12.472;2023-05-18T11:09:42;13.27;66.30
72380;SHT30;60354;47.798;12.472;2023-05-18T11:12:14;13.07;67.02
72380;SHT30;60354;47.798;12.472;2023-05-18T11:14:52;13.16;66.83
72380;SHT30;60354;47.798;12.472;2023-05-18T11:27:55;13.17;67.54
72380;SHT30;60354;47.798;12.472;2023-05-18T11:33:28;13.14;68.41
72380;SHT30;60354;47.798;12.472;2023-05-18T11:36:00;13.41;68.68
72380;SHT30;60354;47.798;12.472;2023-05-18T11:39:04;13.44;67.11
72380;SHT30;60354;47.798;12.472;2023-05-18T11:41:37;13.40;66.67
72380;SHT30;60354;47.798;12.472;2023-05-18T11:44:15;13.43;66.88
72380;SHT30;60354;47.798;12.472;2023-05-18T11:47:03;13.31;66.32
72380;SHT30;60354;47.798;12.472;2023-05-18T11:49:31;13.35;66.20
72380;SHT30;60354;47.798;12.472;2023-05-18T11:57:18;13.21;67.61
72380;SHT30;60354;47.798;12.472;2023-05-18T11:59:46;13.41;67.60
72380;SHT30;60354;47.798;12.472;2023-05-18T12:02:17;13.54;66.61
72380;SHT30;60354;47.798;12.472;2023-05-18T12:04:48;13.55;67.33
72380;SHT30;60354;47.798;12.472;2023-05-18T12:07:17;13.66;66.63
72380;SHT30;60354;47.798;12.472;2023-05-18T12:09:44;13.62;67.12
72380;SHT30;60354;47.798;12.472;2023-05-18T12:12:12;13.61;67.43
72380;SHT30;60354;47.798;12.472;2023-05-18T12:14:40;13.55;66.78
72380;SHT30;60354;47.798;12.472;2023-05-18T12:17:07;13.72;66.30
72380;SHT30;60354;47.798;12.472;2023-05-18T12:19:51;13.81;65.97
72380;SHT30;60354;47.798;12.472;2023-05-18T12:22:16;13.95;67.20
72380;SHT30;60354;47.798;12.472;2023-05-18T12:24:42;13.86;68.10
72380;SHT30;60354;47.798;12.472;2023-05-18T12:27:10;13.72;67.61
72380;SHT30;60354;47.798;12.472;2023-05-18T12:29:40;13.81;67.18
72380;SHT30;60354;47.798;12.472;2023-05-18T12:32:10;13.85;67.67
72380;SHT30;60354;47.798;12.472;2023-05-18T12:34:37;13.99;67.25
72380;SHT30;60354;47.798;12.472;2023-05-18T12:37:03;13.69;67.84
72380;SHT30;60354;47.798;12.472;2023-05-18T12:39:29;13.64;68.09
72380;SHT30;60354;47.798;12.472;2023-05-18T12:42:12;13.65;68.06
72380;SHT30;60354;47.798;12.472;2023-05-18T12:44:39;13.75;69.18
72380;SHT30;60354;47.798;12.472;2023-05-18T12:47:05;13.61;68.26
72380;SHT30;60354;47.798;12.472;2023-05-18T12:49:38;13.61;68.38
72380;SHT30;60354;47.798;12.472;2023-05-18T12:52:12;13.59;69.57
72380;SHT30;60354;47.798;12.472;2023-05-18T12:57:36;13.96;67.62
72380;SHT30;60354;47.798;12.472;2023-05-18T13:00:01;14.20;67.31
72380;SHT30;60354;47.798;12.472;2023-05-18T13:02:36;14.25;68.47
72380;SHT30;60354;47.798;12.472;2023-05-18T13:05:06;14.33;67.69
72380;SHT30;60354;47.798;12.472;2023-05-18T13:07:50;14.41;66.56
72380;SHT30;60354;47.798;12.472;2023-05-18T13:10:17;14.16;66.72
72380;SHT30;60354;47.798;12.472;2023-05-18T13:12:48;14.34;67.51
72380;SHT30;60354;47.798;12.472;2023-05-18T13:15:19;14.34;65.57
72380;SHT30;60354;47.798;12.472;2023-05-18T13:18:00;14.37;65.73
72380;SHT30;60354;47.798;12.472;2023-05-18T13:23:09;14.48;67.54
72380;SHT30;60354;47.798;12.472;2023-05-18T13:25:35;14.37;66.65
72380;SHT30;60354;47.798;12.472;2023-05-18T13:28:02;13.90;67.74
72380;SHT30;60354;47.798;12.472;2023-05-18T13:30:27;13.58;68.08
72380;SHT30;60354;47.798;12.472;2023-05-18T13:32:53;13.58;68.18
72380;SHT30;60354;47.798;12.472;2023-05-18T13:35:19;13.65;68.66
72380;SHT30;60354;47.798;12.472;2023-05-18T13:37:46;13.88;68.78
72380;SHT30;60354;47.798;12.472;2023-05-18T13:40:14;13.75;67.08
72380;SHT30;60354;47.798;12.472;2023-05-18T13:42:39;13.81;68.43
72380;SHT30;60354;47.798;12.472;2023-05-18T13:45:05;13.79;68.13
72380;SHT30;60354;47.798;12.472;2023-05-18T13:47:31;13.86;69.15
72380;SHT30;60354;47.798;12.472;2023-05-18T13:49:57;13.90;68.59
72380;SHT30;60354;47.798;12.472;2023-05-18T13:52:22;13.88;67.08
72380;SHT30;60354;47.798;12.472;2023-05-18T13:54:48;13.66;67.73
72380;SHT30;60354;47.798;12.472;2023-05-18T13:57:13;13.69;67.66
72380;SHT30;60354;47.798;12.472;2023-05-18T13:59:38;13.64;67.58
72380;SHT30;60354;47.798;12.472;2023-05-18T14:02:04;13.53;68.59
72380;SHT30;60354;47.798;12.472;2023-05-18T14:04:30;13.48;69.50
72380;SHT30;60354;47.798;12.472;2023-05-18T14:06:55;13.51;68.86
72380;SHT30;60354;47.798;12.472;2023-05-18T14:09:25;13.43;69.02
72380;SHT30;60354;47.798;12.472;2023-05-18T14:11:53;13.54;68.80
72380;SHT30;60354;47.798;12.472;2023-05-18T14:14:18;13.40;69.23
72380;SHT30;60354;47.798;12.472;2023-05-18T14:16:44;13.28;69.67
72380;SHT30;60354;47.798;12.472;2023-05-18T14:19:10;13.43;69.11
72380;SHT30;60354;47.798;12.472;2023-05-18T14:21:35;13.33;69.47
72380;SHT30;60354;47.798;12.472;2023-05-18T14:24:00;13.43;70.09
72380;SHT30;60354;47.798;12.472;2023-05-18T14:26:28;13.68;69.32
72380;SHT30;60354;47.798;12.472;2023-05-18T14:28:54;13.82;68.99
72380;SHT30;60354;47.798;12.472;2023-05-18T14:31:20;13.85;69.85
72380;SHT30;60354;47.798;12.472;2023-05-18T14:33:45;13.95;70.78
72380;SHT30;60354;47.798;12.472;2023-05-18T14:36:11;14.02;70.48
72380;SHT30;60354;47.798;12.472;2023-05-18T14:38:36;14.08;70.00
72380;SHT30;60354;47.798;12.472;2023-05-18T14:41:02;14.02;69.74
72380;SHT30;60354;47.798;12.472;2023-05-18T14:43:27;13.82;70.15
72380;SHT30;60354;47.798;12.472;2023-05-18T14:45:53;13.66;69.81
72380;SHT30;60354;47.798;12.472;2023-05-18T14:48:18;13.65;70.19
72380;SHT30;60354;47.798;12.472;2023-05-18T14:50:44;13.55;70.74
72380;SHT30;60354;47.798;12.472;2023-05-18T14:53:09;13.54;70.43
72380;SHT30;60354;47.798;12.472;2023-05-18T14:55:35;13.33;70.66
72380;SHT30;60354;47.798;12.472;2023-05-18T14:58:00;13.28;71.31
72380;SHT30;60354;47.798;12.472;2023-05-18T15:00:28;13.48;70.21
72380;SHT30;60354;47.798;12.472;2023-05-18T15:02:54;13.48;69.97
72380;SHT30;60354;47.798;12.472;2023-05-18T15:05:20;13.48;69.81
72380;SHT30;60354;47.798;12.472;2023-05-18T15:07:46;13.28;70.26
72380;SHT30;60354;47.798;12.472;2023-05-18T15:10:11;13.11;70.62
72380;SHT30;60354;47.798;12.472;2023-05-18T15:12:37;13.17;70.95
72380;SHT30;60354;47.798;12.472;2023-05-18T15:15:02;13.20;71.16
72380;SHT30;60354;47.798;12.472;2023-05-18T15:17:28;13.10;71.25
72380;SHT30;60354;47.798;12.472;2023-05-18T15:19:54;13.07;71.53
72380;SHT30;60354;47.798;12.472;2023-05-18T15:22:19;13.16;71.06
72380;SHT30;60354;47.798;12.472;2023-05-18T15:24:45;13.21;71.49
72380;SHT30;60354;47.798;12.472;2023-05-18T15:27:10;13.23;70.70
72380;SHT30;60354;47.798;12.472;2023-05-18T15:29:36;13.14;71.35
72380;SHT30;60354;47.798;12.472;2023-05-18T15:32:02;13.14;71.95
72380;SHT30;60354;47.798;12.472;2023-05-18T15:34:28;13.18;71.62
72380;SHT30;60354;47.798;12.472;2023-05-18T15:36:54;13.10;72.26
72380;SHT30;60354;47.798;12.472;2023-05-18T15:39:19;13.04;72.97
72380;SHT30;60354;47.798;12.472;2023-05-18T15:41:44;13.14;72.52
72380;SHT30;60354;47.798;12.472;2023-05-18T15:44:10;12.90;72.92
72380;SHT30;60354;47.798;12.472;2023-05-18T15:46:35;13.06;73.05
72380;SHT30;60354;47.798;12.472;2023-05-18T15:49:01;12.72;73.19
72380;SHT30;60354;47.798;12.472;2023-05-18T15:51:28;12.77;74.17
72380;SHT30;60354;47.798;12.472;2023-05-18T15:53:53;12.87;73.41
72380;SHT30;60354;47.798;12.472;2023-05-18T15:56:19;12.83;72.78
72380;SHT30;60354;47.798;12.472;2023-05-18T15:58:46;12.73;73.55
72380;SHT30;60354;47.798;12.472;2023-05-18T16:01:12;12.62;74.09
72380;SHT30;60354;47.798;12.472;2023-05-18T16:03:37;12.55;74.07
72380;SHT30;60354;47.798;12.472;2023-05-18T16:06:03;12.59;74.00